Pikwitonei, Canada
Current Conditions -  °F | °C
As of 6:00 AM on Friday 28 Nov 2014 (Local Time) from CYTH Reporting Station
Clear Clear  
Wind Chill: -24°   Ceiling: Unl
Heat Index: -24°   Visibility: 15mi
Dew Point: -29°   Wind: 0mph
Humidity: 76%   Direction: NA
Pressure: 30.15"   Gusts: NA
Location:  55.58°N, 97.15°W
Report Text: CYTH 281200Z 00000KT 15SM SKC M31/M34 A3015 RMK SNW CVR/MEDIUM PACK SLP245
Loading
Personal Weather Stations






























Interactive Weather Map New forecast layout! Learn more

10-Day Weather Forecast

Advertisements
Track Severe Weather on mobile